Time;durP1;ratioP1;P1;durP2;ratioP2;P2;SDS_P1;SDS_P2;PMS_P1;PMS_P2;Temp;Humidity;BMP_temperature;BMP_pressure;BME280_temperature;BME280_humidity;BME280_pressure;Samples;Min_cycle;Max_cycle;Signal;HPM_P1;HPM_P2
2022/07/28 00:08:06;;;;;;;6.70;1.10;;;;;;;17.32;58.36;100365.09;20822584;28;20053;-67
2022/07/28 00:18:07;;;;;;;3.90;1.10;;;;;;;17.27;58.64;100367.94;20823557;28;20068;-68
2022/07/28 00:28:09;;;;;;;5.55;1.20;;;;;;;17.09;58.76;100348.41;20821281;28;20056;-68
2022/07/28 00:38:10;;;;;;;4.75;1.17;;;;;;;17.12;58.96;100358.03;20819491;28;20045;-69
2022/07/28 00:48:12;;;;;;;4.30;1.20;;;;;;;16.91;59.17;100347.44;20820151;28;20045;-69
2022/07/28 00:58:13;;;;;;;5.22;1.00;;;;;;;16.86;59.67;100348.53;20820308;28;20049;-69
2022/07/28 01:08:15;;;;;;;4.18;0.98;;;;;;;16.81;59.22;100337.31;20818390;28;20543;-69
2022/07/28 01:18:16;;;;;;;6.80;1.05;;;;;;;16.79;58.67;100326.81;20818540;28;20059;-69
2022/07/28 01:28:17;;;;;;;3.83;1.15;;;;;;;16.48;60.13;100319.28;20817888;28;20053;-69
2022/07/28 01:38:19;;;;;;;4.35;1.15;;;;;;;16.46;60.06;100321.09;20816907;28;20055;-69
2022/07/28 01:48:20;;;;;;;9.65;1.40;;;;;;;16.24;61.07;100310.56;20817829;28;20406;-68
2022/07/28 01:58:22;;;;;;;3.65;1.45;;;;;;;16.23;60.56;100306.19;20818722;28;20057;-68
2022/07/28 02:08:23;;;;;;;5.32;1.08;;;;;;;16.20;60.19;100298.41;20816539;28;20100;-69
2022/07/28 02:18:24;;;;;;;3.42;0.95;;;;;;;16.12;59.93;100284.63;20816080;28;20053;-68
2022/07/28 02:28:27;;;;;;;4.75;1.00;;;;;;;16.16;59.49;100281.81;20816176;28;20422;-69
2022/07/28 02:38:29;;;;;;;3.80;1.00;;;;;;;16.12;59.65;100280.22;20829373;28;20053;-68
2022/07/28 02:48:35;;;;;;;2.88;0.98;;;;;;;16.05;59.17;100268.19;20829071;28;20049;-68
2022/07/28 02:58:37;;;;;;;4.03;1.03;;;;;;;16.08;58.69;100262.75;20828796;28;20049;-68
2022/07/28 03:08:38;;;;;;;7.32;1.77;;;;;;;15.94;59.32;100270.38;20827407;28;20049;-68
2022/07/28 03:18:39;;;;;;;5.10;1.40;;;;;;;15.90;59.38;100269.66;20827170;28;20053;-69
2022/07/28 03:28:42;;;;;;;2.15;1.08;;;;;;;15.85;59.62;100276.03;20826114;28;20115;-68
2022/07/28 03:38:43;;;;;;;5.03;1.05;;;;;;;15.69;60.38;100274.91;20823977;28;20104;-69
2022/07/28 03:48:44;;;;;;;7.30;1.40;;;;;;;15.57;60.57;100274.44;20824116;28;20608;-69
2022/07/28 03:58:46;;;;;;;4.93;1.13;;;;;;;15.51;61.48;100274.66;20824072;28;20485;-69
2022/07/28 04:08:48;;;;;;;5.47;1.50;;;;;;;15.48;61.38;100266.88;20822247;28;20073;-69
2022/07/28 04:18:49;;;;;;;4.28;1.05;;;;;;;15.39;62.19;100278.63;20822112;28;20053;-68
2022/07/28 04:28:50;;;;;;;8.35;1.67;;;;;;;15.75;60.69;100269.38;20821384;28;20057;-68
2022/07/28 04:38:52;;;;;;;6.85;1.80;;;;;;;15.77;60.19;100268.44;20821128;28;20053;-69
2022/07/28 04:48:53;;;;;;;5.57;1.33;;;;;;;15.99;59.45;100281.63;20820127;28;20061;-68
2022/07/28 04:58:54;;;;;;;4.72;1.23;;;;;;;15.91;60.00;100275.81;20818516;28;20061;-68
2022/07/28 05:08:56;;;;;;;4.22;1.20;;;;;;;15.86;60.46;100277.78;20818165;28;20056;-69
2022/07/28 05:18:57;;;;;;;4.22;0.93;;;;;;;16.30;60.18;100283.91;20817591;28;20060;-69
2022/07/28 05:28:58;;;;;;;4.70;1.20;;;;;;;16.73;57.84;100278.63;20818247;28;20053;-69
2022/07/28 05:39:00;;;;;;;8.40;2.00;;;;;;;17.02;57.66;100274.72;20816868;28;20537;-68
2022/07/28 05:49:02;;;;;;;7.82;1.20;;;;;;;16.96;57.17;100275.84;20817119;28;20058;-68
2022/07/28 05:59:07;;;;;;;5.28;1.20;;;;;;;16.86;58.39;100277.16;20816387;28;20084;-68
2022/07/28 06:09:08;;;;;;;4.88;1.00;;;;;;;17.31;57.05;100283.97;20823888;28;20051;-68
2022/07/28 06:19:09;;;;;;;7.47;1.40;;;;;;;17.50;56.88;100284.84;20831400;28;20060;-68
2022/07/28 06:29:11;;;;;;;5.78;1.50;;;;;;;17.62;56.88;100291.34;20830579;28;20056;-67
2022/07/28 06:39:12;;;;;;;5.45;1.30;;;;;;;17.99;56.66;100279.91;20844449;28;20119;-68
2022/07/28 06:49:13;;;;;;;6.97;1.50;;;;;;;18.00;56.32;100284.28;20828185;28;20145;-68
2022/07/28 06:59:16;;;;;;;5.20;1.40;;;;;;;18.57;56.78;100270.88;20828150;28;20105;-68
2022/07/28 07:09:17;;;;;;;7.00;1.42;;;;;;;18.81;56.14;100276.75;20863458;28;20098;-67
2022/07/28 07:19:19;;;;;;;4.93;1.55;;;;;;;19.08;56.52;100258.53;20907007;28;20049;-66
2022/07/28 07:29:21;;;;;;;7.63;1.85;;;;;;;19.29;56.87;100264.47;20908546;28;20060;-66
2022/07/28 07:39:23;;;;;;;9.23;1.75;;;;;;;19.52;55.93;100248.16;20908119;28;20066;-66
2022/07/28 07:49:24;;;;;;;8.63;1.73;;;;;;;19.71;55.85;100248.03;20907574;28;20059;-66
2022/07/28 07:59:45;;;;;;;8.40;1.60;;;;;;;20.24;55.80;100236.97;20907755;28;20067;-66
2022/07/28 08:09:47;;;;;;;7.78;2.15;;;;;;;20.57;56.71;100235.97;20905053;28;20061;-66
2022/07/28 08:19:48;;;;;;;10.48;2.85;;;;;;;20.90;54.44;100233.09;20905196;28;20684;-66
2022/07/28 08:29:49;;;;;;;8.75;1.70;;;;;;;21.15;54.29;100232.41;20904177;28;20136;-66
2022/07/28 08:39:51;;;;;;;8.93;2.63;;;;;;;21.52;52.59;100224.81;20903124;28;20076;-67
2022/07/28 08:49:52;;;;;;;8.32;2.30;;;;;;;21.98;51.62;100229.81;20903710;28;20045;-66
2022/07/28 08:59:53;;;;;;;4.95;2.17;;;;;;;22.38;50.58;100206.72;20902832;28;20102;-67
2022/07/28 09:09:55;;;;;;;8.70;2.53;;;;;;;22.56;51.75;100199.25;20901231;28;20057;-66
2022/07/28 09:20:03;;;;;;;7.68;2.50;;;;;;;22.60;50.55;100198.09;20901628;28;20044;-67
2022/07/28 09:30:11;;;;;;;8.68;2.60;;;;;;;23.16;49.81;100173.75;20900396;28;20052;-67
2022/07/28 09:40:12;;;;;;;7.85;3.40;;;;;;;23.80;47.76;100177.94;20902196;28;20051;-67
2022/07/28 09:50:13;;;;;;;8.07;3.60;;;;;;;24.02;48.39;100157.63;20916839;28;20055;-67
2022/07/28 10:00:15;;;;;;;8.23;3.55;;;;;;;24.64;47.17;100149.28;20916124;28;20092;-67
2022/07/28 10:10:19;;;;;;;7.57;3.20;;;;;;;25.08;44.95;100128.84;20916040;28;20491;-67
2022/07/28 10:20:21;;;;;;;7.53;3.30;;;;;;;24.97;45.51;100126.16;20915243;28;20053;-67
2022/07/28 10:30:22;;;;;;;10.10;3.35;;;;;;;24.56;45.96;100127.59;20913781;28;20059;-68
2022/07/28 10:40:24;;;;;;;8.32;3.60;;;;;;;24.91;46.43;100110.56;20914009;28;20417;-67
2022/07/28 10:50:25;;;;;;;7.30;3.72;;;;;;;25.74;43.80;100108.22;20912361;28;20107;-67
2022/07/28 11:00:27;;;;;;;5.68;3.20;;;;;;;26.17;42.63;100112.66;20911952;28;20689;-67
2022/07/28 11:10:37;;;;;;;6.72;3.45;;;;;;;26.23;41.95;100101.41;20910565;28;20057;-67
2022/07/28 11:20:39;;;;;;;9.50;3.20;;;;;;;26.03;42.54;100078.13;20909039;28;20464;-67
2022/07/28 11:30:42;;;;;;;6.10;3.10;;;;;;;26.22;41.83;100078.22;20908388;28;20536;-67
2022/07/28 11:40:43;;;;;;;8.18;3.10;;;;;;;27.08;40.16;100060.00;20907722;28;20052;-67
2022/07/28 11:50:44;;;;;;;10.05;2.92;;;;;;;27.26;39.14;100058.31;20908675;28;20049;-68
2022/07/28 12:00:46;;;;;;;7.38;3.10;;;;;;;27.80;38.71;100054.25;20905892;28;20051;-68
2022/07/28 12:10:47;;;;;;;5.97;2.78;;;;;;;28.19;37.86;100051.50;20905159;28;20071;-67
2022/07/28 12:20:56;;;;;;;6.70;3.25;;;;;;;28.23;38.22;100035.91;20905504;28;20041;-67
2022/07/28 12:31:05;;;;;;;8.65;3.65;;;;;;;28.21;38.24;100017.19;20903215;28;20102;-68
2022/07/28 12:41:09;;;;;;;10.73;3.10;;;;;;;27.95;38.44;99997.28;20904630;28;20051;-67
2022/07/28 12:51:12;;;;;;;7.10;3.20;;;;;;;28.34;38.03;99993.50;20903476;28;20052;-67
2022/07/28 13:01:13;;;;;;;6.13;3.33;;;;;;;28.52;36.57;99990.03;20903038;28;20075;-67
2022/07/28 13:11:15;;;;;;;7.45;3.42;;;;;;;28.54;36.96;99990.72;20901863;28;20728;-67
2022/07/28 13:21:36;;;;;;;5.70;3.38;;;;;;;28.37;36.82;99978.91;20901056;28;20045;-67
2022/07/28 13:31:38;;;;;;;6.07;3.08;;;;;;;28.68;36.90;99965.13;20899237;28;20475;-67
2022/07/28 13:41:39;;;;;;;7.75;3.03;;;;;;;29.07;36.62;99949.56;20900383;28;20049;-67
2022/07/28 13:51:59;;;;;;;8.68;3.45;;;;;;;28.58;36.06;99946.31;20899811;28;20056;-67
2022/07/28 14:02:00;;;;;;;6.22;3.13;;;;;;;28.69;36.57;99927.25;20899230;28;20069;-67
2022/07/28 14:12:02;;;;;;;6.70;2.90;;;;;;;28.81;36.47;99917.13;20899665;28;20516;-68
2022/07/28 14:22:04;;;;;;;10.35;3.28;;;;;;;29.11;35.32;99918.59;20899698;28;20500;-68
2022/07/28 14:32:12;;;;;;;7.63;3.25;;;;;;;28.61;35.61;99927.19;20909860;28;20538;-69
2022/07/28 14:42:14;;;;;;;11.48;3.20;;;;;;;28.74;35.53;99916.84;20914093;28;20516;-68
2022/07/28 14:52:15;;;;;;;8.77;3.22;;;;;;;28.51;35.54;99903.00;20913305;28;20083;-68
2022/07/28 15:02:16;;;;;;;6.57;2.90;;;;;;;28.71;36.06;99906.41;20911938;28;20052;-68
2022/07/28 15:12:18;;;;;;;5.85;2.70;;;;;;;29.22;34.59;99886.00;20910995;28;20061;-69
2022/07/28 15:22:20;;;;;;;6.93;3.25;;;;;;;29.35;33.97;99883.75;20910322;28;20056;-69
2022/07/28 15:32:26;;;;;;;6.15;2.78;;;;;;;29.22;34.56;99883.28;20907959;28;20060;-68
2022/07/28 15:42:28;;;;;;;6.07;3.20;;;;;;;28.96;34.79;99883.25;20906495;28;20103;-68
2022/07/28 15:52:30;;;;;;;5.55;3.20;;;;;;;28.92;35.89;99870.22;20907860;28;20063;-69
2022/07/28 16:02:31;;;;;;;5.35;2.95;;;;;;;28.99;34.71;99860.56;20899276;28;20053;-69
2022/07/28 16:12:32;;;;;;;10.38;3.55;;;;;;;28.72;36.29;99858.75;20859116;28;20144;-69
2022/07/28 16:22:39;;;;;;;8.10;3.28;;;;;;;28.50;35.80;99843.88;20847332;28;20056;-69
2022/07/28 16:32:40;;;;;;;5.95;3.17;;;;;;;28.46;36.29;99845.19;20895349;28;20063;-68
2022/07/28 16:42:41;;;;;;;4.75;2.78;;;;;;;28.26;36.69;99834.50;20835241;28;20059;-69
2022/07/28 16:52:43;;;;;;;7.10;2.92;;;;;;;28.42;36.55;99844.66;20812777;28;20716;-69
2022/07/28 17:02:44;;;;;;;7.93;3.10;;;;;;;28.65;36.01;99847.75;20818173;28;20425;-69
2022/07/28 17:12:45;;;;;;;5.85;2.90;;;;;;;28.71;35.40;99859.75;20839916;28;20052;-68
2022/07/28 17:22:50;;;;;;;9.13;3.33;;;;;;;28.40;35.90;99853.88;20879051;28;20045;-68
2022/07/28 17:32:51;;;;;;;6.22;3.78;;;;;;;27.99;36.19;99864.16;20892680;28;20574;-67
2022/07/28 17:42:53;;;;;;;10.23;3.40;;;;;;;27.84;37.33;99867.31;20892891;28;20075;-67
2022/07/28 17:52:54;;;;;;;9.93;3.30;;;;;;;27.99;36.18;99877.59;20892206;28;20055;-67
2022/07/28 18:02:55;;;;;;;6.18;3.08;;;;;;;28.14;35.94;99886.88;20896578;28;20049;-67
2022/07/28 18:12:57;;;;;;;7.45;3.40;;;;;;;27.74;36.77;99879.97;20907845;28;20053;-67
2022/07/28 18:22:58;;;;;;;9.45;3.42;;;;;;;27.48;37.63;99873.50;20907537;28;20063;-67
2022/07/28 18:33:02;;;;;;;10.27;3.08;;;;;;;27.12;38.63;99881.34;20905376;28;20497;-67
2022/07/28 18:43:05;;;;;;;6.97;3.03;;;;;;;26.79;39.08;99877.22;20882187;28;20049;-67
2022/07/28 18:53:13;;;;;;;9.20;3.35;;;;;;;26.44;40.45;99869.66;20900088;28;20111;-67
2022/07/28 19:03:14;;;;;;;7.20;3.00;;;;;;;26.17;41.28;99887.25;20901942;28;20413;-67
2022/07/28 19:13:15;;;;;;;5.32;3.28;;;;;;;25.87;42.30;99906.03;20869752;28;20162;-67
2022/07/28 19:23:18;;;;;;;9.05;2.90;;;;;;;25.65;42.20;99902.53;20863901;28;20095;-67
2022/07/28 19:33:20;;;;;;;6.25;2.40;;;;;;;25.33;42.46;99913.31;20899032;28;20060;-67
2022/07/28 19:43:25;;;;;;;7.22;2.45;;;;;;;24.82;43.81;99928.25;20899867;28;20064;-67
2022/07/28 19:53:26;;;;;;;6.25;2.47;;;;;;;24.62;44.16;99945.06;20898858;28;20053;-67
2022/07/28 20:03:34;;;;;;;7.35;2.50;;;;;;;24.33;44.99;99966.13;20897300;28;20463;-67
2022/07/28 20:13:56;;;;;;;7.75;2.55;;;;;;;23.83;46.49;99979.00;20861327;28;20050;-67
2022/07/28 20:23:57;;;;;;;7.65;2.47;;;;;;;23.61;47.22;99990.44;20814853;28;20049;-69
2022/07/28 20:33:58;;;;;;;5.93;2.45;;;;;;;23.22;48.75;99994.31;20813291;28;20415;-69
2022/07/28 20:44:00;;;;;;;7.63;2.15;;;;;;;23.03;48.66;100009.03;20812527;28;20124;-69
2022/07/28 20:54:21;;;;;;;7.85;2.08;;;;;;;22.90;49.29;100013.59;20811672;28;20507;-69
2022/07/28 21:04:23;;;;;;;8.43;2.38;;;;;;;22.74;49.31;100021.81;20810082;28;20422;-69
2022/07/28 21:14:24;;;;;;;8.10;2.60;;;;;;;22.90;48.24;100026.94;20849826;28;20493;-68
2022/07/28 21:24:26;;;;;;;5.53;2.45;;;;;;;23.04;47.63;100049.94;20892785;28;20057;-69
2022/07/28 21:34:27;;;;;;;6.35;2.47;;;;;;;22.92;48.46;100073.06;20891059;28;20068;-68
2022/07/28 21:44:28;;;;;;;9.10;2.92;;;;;;;22.62;50.15;100067.22;20890963;28;20057;-69
2022/07/28 21:54:30;;;;;;;7.30;2.17;;;;;;;22.51;50.44;100059.97;20891575;28;20057;-69
2022/07/28 22:04:31;;;;;;;5.32;2.30;;;;;;;22.45;50.62;100074.59;20895159;28;20520;-69
2022/07/28 22:14:33;;;;;;;8.77;2.20;;;;;;;22.54;50.63;100078.44;20898751;28;20139;-68
2022/07/28 22:24:34;;;;;;;4.70;2.25;;;;;;;22.24;51.62;100070.78;20897769;28;20516;-68
2022/07/28 22:34:36;;;;;;;5.43;2.28;;;;;;;22.12;52.28;100066.28;20912978;22;20052;-75
2022/07/28 22:44:37;;;;;;;9.25;2.55;;;;;;;22.15;53.67;100074.06;20898709;28;20053;-75
2022/07/28 22:54:38;;;;;;;9.93;3.03;;;;;;;22.07;58.64;100063.03;20911197;28;20490;-75
2022/07/28 23:04:40;;;;;;;8.15;4.30;;;;;;;21.89;65.02;100054.47;20911215;28;20051;-74
2022/07/28 23:14:41;;;;;;;7.10;3.58;;;;;;;21.84;71.36;100048.63;20910476;28;20057;-74
2022/07/28 23:24:42;;;;;;;7.15;3.67;;;;;;;21.82;77.17;100063.88;20910230;28;20076;-75
2022/07/28 23:34:45;;;;;;;6.63;4.30;;;;;;;21.84;78.36;100064.59;20909631;28;20052;-74
2022/07/28 23:44:46;;;;;;;7.03;3.97;;;;;;;21.52;79.75;100062.31;20909150;28;20051;-76
2022/07/28 23:54:48;;;;;;;6.82;4.30;;;;;;;21.19;83.58;100065.34;20907089;28;20045;-76
